Time;durP1;ratioP1;P1;durP2;ratioP2;P2;SDS_P1;SDS_P2;PMS_P1;PMS_P2;Temp;Humidity;BMP_temperature;BMP_pressure;BME280_temperature;BME280_humidity;BME280_pressure;Samples;Min_cycle;Max_cycle;Signal;HPM_P1;HPM_P2
2023/06/29 00:01:02;;;;;;;5.13;4.03;;;23.70;68.20;;;;;;6266749;22;20425;-65
2023/06/29 00:03:28;;;;;;;7.47;4.20;;;23.60;68.30;;;;;;6266350;22;20369;-65
2023/06/29 00:05:57;;;;;;;6.03;4.10;;;23.60;68.30;;;;;;6267183;22;20724;-66
2023/06/29 00:08:24;;;;;;;4.70;4.30;;;23.60;68.30;;;;;;6239400;22;20171;-65
2023/06/29 00:10:50;;;;;;;5.90;4.93;;;23.60;68.30;;;;;;6240778;22;20373;-65
2023/06/29 00:13:16;;;;;;;4.23;3.83;;;23.60;68.20;;;;;;6266108;22;20453;-65
2023/06/29 00:15:42;;;;;;;5.30;4.23;;;23.60;68.20;;;;;;6267279;22;20876;-66
2023/06/29 00:18:09;;;;;;;6.93;4.97;;;23.60;68.00;;;;;;6266929;22;20222;-66
2023/06/29 00:20:35;;;;;;;4.97;4.40;;;23.60;67.90;;;;;;6265164;22;20413;-66
2023/06/29 00:23:01;;;;;;;5.37;4.40;;;23.60;67.80;;;;;;6267134;22;20377;-65
2023/06/29 00:25:27;;;;;;;4.70;4.20;;;23.60;67.80;;;;;;6267099;22;20373;-65
2023/06/29 00:27:53;;;;;;;6.27;4.10;;;23.60;68.20;;;;;;6266647;22;20404;-65
2023/06/29 00:30:19;;;;;;;4.63;3.77;;;23.50;68.00;;;;;;6266202;22;20200;-65
2023/06/29 00:32:44;;;;;;;5.40;4.53;;;23.50;68.10;;;;;;6264444;22;20196;-65
2023/06/29 00:35:10;;;;;;;5.87;4.30;;;23.50;68.30;;;;;;6264390;22;20712;-65
2023/06/29 00:37:36;;;;;;;4.53;4.13;;;23.50;68.50;;;;;;6262461;22;20538;-65
2023/06/29 00:40:02;;;;;;;5.50;5.00;;;23.50;68.30;;;;;;6264205;22;20180;-65
2023/06/29 00:42:28;;;;;;;5.23;4.30;;;23.50;68.30;;;;;;6264655;22;20209;-65
2023/06/29 00:44:54;;;;;;;4.60;4.20;;;23.50;68.40;;;;;;6263999;22;20404;-65
2023/06/29 00:47:21;;;;;;;5.47;4.03;;;23.40;68.30;;;;;;6263126;22;20864;-66
2023/06/29 00:49:46;;;;;;;5.83;4.47;;;23.40;68.40;;;;;;6264276;22;20166;-66
2023/06/29 00:52:12;;;;;;;4.90;4.40;;;23.30;69.20;;;;;;6264451;22;20423;-66
2023/06/29 00:54:38;;;;;;;4.80;4.40;;;23.40;68.50;;;;;;6263661;22;20169;-66
2023/06/29 00:57:04;;;;;;;5.27;4.43;;;23.40;68.70;;;;;;6264222;22;20663;-65
2023/06/29 00:59:29;;;;;;;5.80;5.20;;;23.40;68.80;;;;;;6262358;22;20944;-66
2023/06/29 01:01:55;;;;;;;6.13;5.10;;;23.30;69.10;;;;;;6264085;22;20202;-66
2023/06/29 01:04:25;;;;;;;6.70;4.70;;;23.30;69.60;;;;;;6263866;22;20534;-66
2023/06/29 01:07:11;;;;;;;5.93;4.70;;;23.30;69.60;;;;;;6261663;22;20606;-66
2023/06/29 01:09:38;;;;;;;7.13;4.97;;;23.30;69.90;;;;;;6243578;22;20503;-66
2023/06/29 01:12:04;;;;;;;6.57;4.90;;;23.30;70.00;;;;;;6264752;22;20370;-66
2023/06/29 01:14:32;;;;;;;5.80;4.70;;;23.30;70.20;;;;;;6262982;22;20377;-66
2023/06/29 01:16:59;;;;;;;5.43;4.53;;;23.30;70.40;;;;;;6264739;22;20385;-66
2023/06/29 01:19:31;;;;;;;4.90;4.50;;;23.30;70.60;;;;;;6261921;22;20422;-66
2023/06/29 01:22:04;;;;;;;5.70;4.47;;;23.20;70.60;;;;;;6266835;22;20419;-66
2023/06/29 01:24:39;;;;;;;7.80;4.37;;;23.20;70.80;;;;;;6266496;22;20376;-66
2023/06/29 01:27:07;;;;;;;5.73;4.53;;;23.10;71.10;;;;;;6265440;22;20914;-66
2023/06/29 01:29:32;;;;;;;6.93;4.80;;;23.10;71.50;;;;;;6265259;22;20397;-66
2023/06/29 01:32:00;;;;;;;5.43;4.80;;;23.10;71.50;;;;;;6266031;22;20712;-66
2023/06/29 01:34:51;;;;;;;7.13;4.70;;;23.10;71.70;;;;;;6266400;22;20250;-66
2023/06/29 01:37:21;;;;;;;4.67;4.17;;;23.00;71.70;;;;;;6237377;22;20430;-66
2023/06/29 01:39:49;;;;;;;4.63;4.23;;;23.00;71.90;;;;;;6265117;22;20397;-65
2023/06/29 01:42:15;;;;;;;5.57;4.67;;;23.00;71.80;;;;;;6265059;22;21187;-66
2023/06/29 01:44:40;;;;;;;7.97;5.03;;;23.00;71.70;;;;;;6265220;22;20740;-66
2023/06/29 01:47:10;;;;;;;7.67;4.97;;;22.90;71.70;;;;;;6264799;22;20224;-65
2023/06/29 01:49:36;;;;;;;5.43;4.93;;;22.90;71.80;;;;;;6263089;22;20502;-66
2023/06/29 01:52:04;;;;;;;6.00;5.10;;;22.90;71.80;;;;;;6266304;22;20460;-66
2023/06/29 01:54:30;;;;;;;6.77;6.00;;;22.90;71.90;;;;;;6266251;22;20146;-66
2023/06/29 01:56:55;;;;;;;5.50;4.50;;;22.90;72.00;;;;;;6264171;22;20387;-66
2023/06/29 01:59:21;;;;;;;5.27;4.77;;;22.80;72.00;;;;;;6264756;22;20397;-66
2023/06/29 02:01:47;;;;;;;7.33;4.57;;;22.80;72.20;;;;;;6266212;22;20178;-65
2023/06/29 02:04:12;;;;;;;6.13;5.53;;;22.70;72.30;;;;;;6261921;22;20610;-66
2023/06/29 02:06:38;;;;;;;6.50;5.47;;;22.60;72.30;;;;;;6264126;22;20181;-66
2023/06/29 02:09:03;;;;;;;8.70;5.03;;;22.60;72.40;;;;;;6264897;22;20190;-66
2023/06/29 02:11:29;;;;;;;6.80;4.83;;;22.60;72.60;;;;;;6266980;22;20839;-66
2023/06/29 02:13:54;;;;;;;4.80;4.40;;;22.50;72.70;;;;;;6263942;22;20162;-65
2023/06/29 02:16:20;;;;;;;5.30;4.80;;;22.50;72.80;;;;;;6264908;22;20304;-65
2023/06/29 02:18:46;;;;;;;6.27;5.20;;;22.50;72.90;;;;;;6264264;22;20166;-65
2023/06/29 02:21:12;;;;;;;9.30;5.20;;;22.50;73.10;;;;;;6265731;22;20187;-65
2023/06/29 02:23:37;;;;;;;5.30;4.30;;;22.40;73.10;;;;;;6265359;22;20656;-65
2023/06/29 02:26:03;;;;;;;6.27;4.87;;;22.40;73.30;;;;;;6265558;22;20377;-65
2023/06/29 02:28:28;;;;;;;6.27;5.30;;;22.30;73.20;;;;;;6265309;22;20170;-66
2023/06/29 02:30:54;;;;;;;6.77;5.20;;;22.30;73.30;;;;;;6266682;22;20236;-66
2023/06/29 02:33:19;;;;;;;5.73;5.00;;;22.30;73.50;;;;;;6268185;22;20150;-66
2023/06/29 02:35:45;;;;;;;6.90;4.73;;;22.30;73.70;;;;;;6265643;22;20173;-66
2023/06/29 02:38:10;;;;;;;5.37;4.87;;;22.20;73.90;;;;;;6266004;22;20645;-66
2023/06/29 02:40:36;;;;;;;7.43;5.10;;;22.20;73.90;;;;;;6268974;22;20170;-66
2023/06/29 02:43:01;;;;;;;7.50;5.03;;;22.10;74.10;;;;;;6266190;22;20158;-66
2023/06/29 02:45:27;;;;;;;9.33;5.33;;;22.10;74.60;;;;;;6268305;22;20470;-65
2023/06/29 02:47:52;;;;;;;5.83;5.33;;;22.00;74.60;;;;;;6268038;22;20583;-65
2023/06/29 02:50:18;;;;;;;5.57;5.07;;;22.00;75.20;;;;;;6267438;22;20151;-65
2023/06/29 02:52:44;;;;;;;8.37;5.30;;;21.90;75.30;;;;;;6268766;22;20150;-65
2023/06/29 02:55:09;;;;;;;5.87;5.37;;;21.90;75.50;;;;;;6267550;22;20565;-65
2023/06/29 02:57:36;;;;;;;9.53;5.20;;;21.90;75.60;;;;;;6265836;22;20542;-65
2023/06/29 03:00:03;;;;;;;6.67;5.40;;;21.90;75.50;;;;;;6265413;22;20344;-65
2023/06/29 03:02:28;;;;;;;5.50;5.00;;;21.90;75.40;;;;;;6267507;22;20929;-65
2023/06/29 03:04:54;;;;;;;5.63;5.03;;;21.80;75.50;;;;;;6268169;22;20376;-65
2023/06/29 03:07:19;;;;;;;7.17;5.13;;;21.80;75.70;;;;;;6265362;22;20146;-65
2023/06/29 03:09:45;;;;;;;5.57;4.80;;;21.70;75.70;;;;;;6267791;22;20269;-66
2023/06/29 03:12:12;;;;;;;6.07;5.20;;;21.60;75.80;;;;;;6266962;22;20223;-66
2023/06/29 03:14:37;;;;;;;8.80;5.07;;;21.60;76.10;;;;;;6240473;22;20158;-65
2023/06/29 03:17:03;;;;;;;6.40;5.23;;;21.60;76.40;;;;;;6266268;22;20377;-65
2023/06/29 03:19:29;;;;;;;5.20;4.70;;;21.60;76.50;;;;;;6267798;22;20244;-65
2023/06/29 03:21:54;;;;;;;10.43;4.70;;;21.50;76.50;;;;;;6268080;22;20227;-65
2023/06/29 03:24:20;;;;;;;5.40;4.90;;;21.60;76.70;;;;;;6266288;22;20151;-65
2023/06/29 03:26:45;;;;;;;5.60;5.10;;;21.50;76.70;;;;;;6266126;22;20170;-65
2023/06/29 03:29:11;;;;;;;6.33;5.67;;;21.50;76.90;;;;;;6265645;22;20220;-66
2023/06/29 03:31:36;;;;;;;11.10;4.60;;;21.50;77.00;;;;;;6237920;22;20170;-66
2023/06/29 03:34:02;;;;;;;7.63;6.60;;;21.40;77.00;;;;;;6266675;22;20147;-66
2023/06/29 03:36:27;;;;;;;7.23;5.43;;;21.50;77.20;;;;;;6267858;22;20151;-66
2023/06/29 03:38:53;;;;;;;6.13;4.97;;;21.40;77.30;;;;;;6239221;22;20178;-66
2023/06/29 03:41:18;;;;;;;7.60;5.57;;;21.40;77.50;;;;;;6267632;22;20178;-66
2023/06/29 03:43:44;;;;;;;5.47;4.97;;;21.40;77.60;;;;;;6266030;22;20157;-66
2023/06/29 03:46:10;;;;;;;5.80;5.00;;;21.40;77.80;;;;;;6265522;22;20166;-66
2023/06/29 03:48:36;;;;;;;10.97;5.47;;;21.40;77.90;;;;;;6265882;22;20171;-66
2023/06/29 03:51:01;;;;;;;6.50;5.43;;;21.40;78.20;;;;;;6268530;22;20151;-66
2023/06/29 03:53:27;;;;;;;6.13;5.50;;;21.40;78.30;;;;;;6265630;22;20424;-66
2023/06/29 03:55:52;;;;;;;5.63;5.13;;;21.40;78.50;;;;;;6267159;22;20155;-66
2023/06/29 03:58:18;;;;;;;6.63;5.53;;;21.40;78.80;;;;;;6238549;22;20178;-65
2023/06/29 04:00:44;;;;;;;8.27;6.47;;;21.40;79.00;;;;;;6266131;22;20259;-66
2023/06/29 04:03:10;;;;;;;6.53;5.77;;;21.40;79.30;;;;;;6266990;22;20135;-66
2023/06/29 04:05:35;;;;;;;6.43;5.40;;;21.30;79.30;;;;;;6264852;22;20157;-66
2023/06/29 04:08:05;;;;;;;6.90;5.90;;;21.30;79.40;;;;;;6266867;22;21075;-66
2023/06/29 04:10:32;;;;;;;9.20;5.63;;;21.30;79.50;;;;;;6267255;22;20154;-66
2023/06/29 04:12:57;;;;;;;6.10;5.50;;;21.40;79.70;;;;;;6267697;22;20369;-66
2023/06/29 04:15:23;;;;;;;5.97;5.40;;;21.30;79.70;;;;;;6266534;22;20492;-66
2023/06/29 04:17:49;;;;;;;5.30;4.90;;;21.30;79.80;;;;;;6268597;22;20147;-66
2023/06/29 04:20:14;;;;;;;7.50;5.27;;;21.30;79.90;;;;;;6266731;22;20228;-66
2023/06/29 04:22:40;;;;;;;5.80;5.20;;;21.30;79.90;;;;;;6268219;22;20182;-66
2023/06/29 04:25:06;;;;;;;7.07;5.80;;;21.30;80.10;;;;;;6267782;22;20147;-66
2023/06/29 04:27:34;;;;;;;6.90;5.20;;;21.20;80.10;;;;;;6266852;22;20158;-66
2023/06/29 04:30:00;;;;;;;8.00;5.30;;;21.20;80.20;;;;;;6266749;22;20377;-66
2023/06/29 04:32:25;;;;;;;6.50;5.33;;;21.20;80.30;;;;;;6267501;22;20495;-66
2023/06/29 04:34:51;;;;;;;7.10;5.77;;;21.20;80.40;;;;;;6268476;22;20880;-66
2023/06/29 04:37:16;;;;;;;7.60;5.60;;;21.20;80.20;;;;;;6267044;22;20165;-66
2023/06/29 04:39:42;;;;;;;5.90;5.23;;;21.20;80.30;;;;;;6268209;22;20170;-66
2023/06/29 04:42:12;;;;;;;5.87;5.10;;;21.30;80.40;;;;;;6265523;22;20257;-66
2023/06/29 04:44:41;;;;;;;5.67;5.17;;;21.30;80.30;;;;;;6267066;22;20135;-66
2023/06/29 04:47:07;;;;;;;6.63;5.30;;;21.30;80.20;;;;;;6267513;22;20729;-66
2023/06/29 04:49:36;;;;;;;7.57;6.77;;;21.20;80.10;;;;;;6267199;22;20404;-66
2023/06/29 04:52:02;;;;;;;5.40;4.90;;;21.30;80.20;;;;;;6267870;22;20230;-66
2023/06/29 04:54:28;;;;;;;9.23;5.67;;;21.30;80.10;;;;;;6265968;22;20914;-66
2023/06/29 04:56:54;;;;;;;7.10;4.87;;;21.30;80.10;;;;;;6268174;22;20605;-66
2023/06/29 04:59:23;;;;;;;5.60;5.10;;;21.30;80.10;;;;;;6265382;22;20216;-66
2023/06/29 05:01:48;;;;;;;6.10;4.80;;;21.30;80.00;;;;;;6240051;22;20440;-66
2023/06/29 05:04:14;;;;;;;6.10;5.07;;;21.40;80.00;;;;;;6266208;22;20377;-66
2023/06/29 05:06:39;;;;;;;6.30;5.37;;;21.40;79.90;;;;;;6267879;22;20142;-66
2023/06/29 05:09:05;;;;;;;5.67;5.07;;;21.50;79.80;;;;;;6265528;22;20675;-66
2023/06/29 05:11:30;;;;;;;5.20;4.80;;;21.50;79.70;;;;;;6266857;22;20155;-65
2023/06/29 05:13:56;;;;;;;6.50;5.33;;;21.60;79.70;;;;;;6266531;22;20162;-65
2023/06/29 05:16:21;;;;;;;6.50;5.20;;;21.60;79.70;;;;;;6266785;22;20220;-65
2023/06/29 05:18:47;;;;;;;7.20;4.73;;;21.60;79.60;;;;;;6266092;22;20174;-66
2023/06/29 05:21:14;;;;;;;10.13;6.40;;;21.60;79.50;;;;;;6267086;22;20548;-66
2023/06/29 05:23:40;;;;;;;7.63;6.87;;;21.70;79.30;;;;;;6266493;22;20142;-66
2023/06/29 05:26:05;;;;;;;8.90;5.40;;;21.70;79.00;;;;;;6267609;22;20876;-65
2023/06/29 05:28:31;;;;;;;6.83;4.90;;;21.80;78.90;;;;;;6266046;22;20253;-65
2023/06/29 05:30:57;;;;;;;6.53;5.00;;;21.80;78.80;;;;;;6238907;22;20241;-65
2023/06/29 05:33:25;;;;;;;6.53;4.80;;;21.90;78.70;;;;;;6265906;22;20467;-66
2023/06/29 05:35:51;;;;;;;5.83;5.17;;;22.00;78.60;;;;;;6267799;22;20492;-65
2023/06/29 05:38:16;;;;;;;6.90;5.30;;;22.00;78.40;;;;;;6266245;22;20389;-66
2023/06/29 05:40:42;;;;;;;7.03;5.40;;;22.10;78.20;;;;;;6266579;22;20171;-66
2023/06/29 05:43:07;;;;;;;7.87;5.30;;;22.20;78.20;;;;;;6264195;22;20162;-66
2023/06/29 05:45:33;;;;;;;6.83;5.07;;;22.20;77.80;;;;;;6264633;22;20587;-65
2023/06/29 05:47:59;;;;;;;8.63;5.40;;;22.30;77.70;;;;;;6265793;22;20170;-66
2023/06/29 05:50:24;;;;;;;6.40;5.80;;;22.30;77.50;;;;;;6265854;22;20223;-66
2023/06/29 05:52:50;;;;;;;6.43;4.67;;;22.40;77.30;;;;;;6267473;22;20227;-66
2023/06/29 05:55:15;;;;;;;5.50;4.60;;;22.40;77.10;;;;;;6264540;22;20158;-66
2023/06/29 05:57:41;;;;;;;7.90;5.10;;;22.50;77.00;;;;;;6267596;22;20143;-66
2023/06/29 06:00:12;;;;;;;10.80;5.90;;;22.60;76.80;;;;;;6265972;22;20158;-66
2023/06/29 06:02:39;;;;;;;13.10;10.03;;;22.60;76.50;;;;;;6238176;22;20236;-66
2023/06/29 06:05:07;;;;;;;5.90;5.13;;;22.60;76.60;;;;;;6266123;22;20400;-66
2023/06/29 06:07:33;;;;;;;10.23;5.20;;;22.60;76.40;;;;;;6265139;22;20377;-66
2023/06/29 06:09:59;;;;;;;8.03;5.10;;;22.70;76.50;;;;;;6266248;22;20481;-66
2023/06/29 06:12:24;;;;;;;6.77;5.17;;;22.70;76.30;;;;;;6265316;22;20386;-66
2023/06/29 06:14:50;;;;;;;5.20;4.70;;;22.80;76.10;;;;;;6266515;22;20154;-66
2023/06/29 06:17:16;;;;;;;5.10;4.60;;;22.90;75.90;;;;;;6263584;22;20154;-66
2023/06/29 06:19:42;;;;;;;6.23;5.10;;;23.00;75.70;;;;;;6264499;22;20170;-67
2023/06/29 06:22:08;;;;;;;6.03;5.07;;;23.10;75.50;;;;;;6266330;22;20177;-66
2023/06/29 06:24:34;;;;;;;5.23;4.73;;;23.20;75.40;;;;;;6265709;22;20371;-66
2023/06/29 06:27:00;;;;;;;6.47;5.00;;;23.30;75.20;;;;;;6237913;22;20373;-66
2023/06/29 06:29:26;;;;;;;6.27;5.20;;;23.40;74.90;;;;;;6238071;22;20224;-66
2023/06/29 06:31:51;;;;;;;8.10;4.53;;;23.50;74.50;;;;;;6266537;22;20372;-66
2023/06/29 06:34:17;;;;;;;5.93;4.67;;;23.60;74.50;;;;;;6238472;22;20210;-66
2023/06/29 06:36:42;;;;;;;6.37;5.70;;;23.60;74.20;;;;;;6266007;22;20162;-66
2023/06/29 06:39:08;;;;;;;11.63;6.53;;;23.70;74.20;;;;;;6260162;22;20254;-66
2023/06/29 06:41:34;;;;;;;6.00;4.50;;;23.80;75.00;;;;;;6262286;22;20176;-65
2023/06/29 06:43:59;;;;;;;9.97;7.40;;;23.90;74.30;;;;;;6265583;22;20157;-66
2023/06/29 06:46:25;;;;;;;7.10;4.83;;;24.00;73.90;;;;;;6266092;22;20153;-66
2023/06/29 06:48:51;;;;;;;7.13;4.70;;;24.00;73.70;;;;;;6265391;22;20625;-66
2023/06/29 06:51:16;;;;;;;5.30;4.20;;;24.10;73.50;;;;;;6266214;22;20150;-66
2023/06/29 06:53:42;;;;;;;5.53;4.50;;;24.10;73.10;;;;;;6264774;22;20165;-66
2023/06/29 06:56:07;;;;;;;6.70;5.10;;;24.20;72.90;;;;;;6262657;22;20169;-66
2023/06/29 06:58:34;;;;;;;5.30;4.80;;;24.20;72.80;;;;;;6259998;22;20171;-66
2023/06/29 07:00:59;;;;;;;4.53;4.13;;;24.20;72.40;;;;;;6262707;22;20649;-66
2023/06/29 07:03:25;;;;;;;5.70;4.50;;;24.30;72.60;;;;;;6265448;22;20454;-66
2023/06/29 07:05:53;;;;;;;6.10;5.20;;;24.30;72.40;;;;;;6255239;22;20464;-67
2023/06/29 07:08:19;;;;;;;8.23;5.00;;;24.30;72.70;;;;;;6258928;22;20749;-66
2023/06/29 07:10:45;;;;;;;7.67;5.30;;;24.40;72.70;;;;;;6262917;22;20809;-67
2023/06/29 07:13:11;;;;;;;8.13;4.53;;;24.50;72.80;;;;;;6265678;22;20444;-66
2023/06/29 07:15:36;;;;;;;6.43;5.20;;;24.50;72.60;;;;;;6262286;22;20154;-68
2023/06/29 07:18:02;;;;;;;7.23;4.97;;;24.70;72.40;;;;;;6266381;22;20171;-68
2023/06/29 07:20:28;;;;;;;4.87;4.37;;;24.70;72.20;;;;;;6267809;22;20496;-67
2023/06/29 07:22:54;;;;;;;8.00;4.77;;;24.80;72.20;;;;;;6268929;22;20369;-66
2023/06/29 07:25:20;;;;;;;6.10;4.53;;;24.90;72.10;;;;;;6265004;22;20157;-67
2023/06/29 07:27:45;;;;;;;6.07;4.70;;;25.00;71.90;;;;;;6266774;22;20147;-67
2023/06/29 07:30:12;;;;;;;6.80;5.20;;;25.00;71.70;;;;;;6267008;22;20472;-67
2023/06/29 07:32:38;;;;;;;5.77;4.70;;;25.10;71.50;;;;;;6266469;22;20192;-66
2023/06/29 07:35:05;;;;;;;6.40;4.77;;;25.20;71.60;;;;;;6265454;22;20841;-66
2023/06/29 07:37:31;;;;;;;5.83;4.70;;;25.20;71.30;;;;;;6267329;22;20166;-66
2023/06/29 07:39:56;;;;;;;13.33;9.10;;;25.30;71.50;;;;;;6268482;22;20393;-67
2023/06/29 07:42:22;;;;;;;6.10;5.00;;;25.30;71.50;;;;;;6265088;22;20178;-67
2023/06/29 07:44:48;;;;;;;12.80;6.13;;;25.40;71.50;;;;;;6262975;22;20245;-67
2023/06/29 07:47:13;;;;;;;5.60;4.80;;;25.50;71.50;;;;;;6266875;22;20851;-66
2023/06/29 07:49:39;;;;;;;8.60;5.33;;;25.50;72.10;;;;;;6266799;22;20192;-66
2023/06/29 07:52:05;;;;;;;9.87;5.07;;;25.60;72.30;;;;;;6266825;22;20155;-66
2023/06/29 07:54:30;;;;;;;11.20;5.20;;;25.60;71.80;;;;;;6264539;22;20159;-66
2023/06/29 07:56:56;;;;;;;11.00;5.90;;;25.60;72.00;;;;;;6265409;22;20374;-67
2023/06/29 07:59:22;;;;;;;7.67;4.83;;;25.70;71.70;;;;;;6260924;22;20178;-68
2023/06/29 08:01:48;;;;;;;6.53;4.80;;;25.80;71.40;;;;;;6267411;22;20189;-68
2023/06/29 08:04:14;;;;;;;5.70;4.70;;;25.80;70.90;;;;;;6266048;22;20146;-68
2023/06/29 08:06:43;;;;;;;8.23;5.73;;;25.80;70.70;;;;;;6266459;22;20473;-68
2023/06/29 08:09:11;;;;;;;6.57;4.37;;;25.90;70.30;;;;;;6267345;22;20390;-68
2023/06/29 08:11:36;;;;;;;5.77;4.53;;;25.80;69.60;;;;;;6267786;22;20369;-68
2023/06/29 08:14:02;;;;;;;6.43;4.83;;;25.80;69.20;;;;;;6266021;22;20704;-68
2023/06/29 08:16:28;;;;;;;7.93;5.77;;;25.90;69.10;;;;;;6266633;22;20377;-68
2023/06/29 08:18:53;;;;;;;5.03;4.30;;;26.00;69.10;;;;;;6267682;22;20201;-69
2023/06/29 08:21:19;;;;;;;18.90;5.80;;;26.00;69.10;;;;;;6266780;22;20614;-68
2023/06/29 08:23:46;;;;;;;9.70;4.50;;;26.10;68.80;;;;;;6265866;22;20153;-68
2023/06/29 08:26:12;;;;;;;14.00;12.63;;;26.10;68.70;;;;;;6267595;22;20181;-69
2023/06/29 08:28:37;;;;;;;5.50;4.50;;;26.10;69.00;;;;;;6265848;22;20393;-68
2023/06/29 08:31:03;;;;;;;8.63;4.43;;;26.20;68.10;;;;;;6266574;22;20158;-68
2023/06/29 08:33:28;;;;;;;10.50;6.30;;;26.20;68.00;;;;;;6266921;22;20150;-66
2023/06/29 08:35:54;;;;;;;5.80;4.37;;;26.20;67.20;;;;;;6265288;22;20185;-69
2023/06/29 08:38:19;;;;;;;7.17;4.97;;;26.20;67.40;;;;;;6264221;22;20170;-69
2023/06/29 08:40:49;;;;;;;4.83;3.83;;;26.30;67.40;;;;;;6264652;22;20155;-68
2023/06/29 08:43:18;;;;;;;5.43;4.23;;;26.30;67.40;;;;;;6264489;22;20150;-68
2023/06/29 08:45:45;;;;;;;5.60;4.40;;;26.40;66.60;;;;;;6265113;22;20456;-67
2023/06/29 08:48:12;;;;;;;7.37;4.60;;;26.50;67.00;;;;;;6264131;22;20397;-68
2023/06/29 08:50:43;;;;;;;5.00;4.50;;;26.60;65.90;;;;;;6262017;22;20396;-65
2023/06/29 08:53:10;;;;;;;5.50;4.13;;;26.60;65.10;;;;;;6265574;22;20366;-68
2023/06/29 08:55:36;;;;;;;4.90;4.40;;;26.70;64.10;;;;;;6261306;22;20413;-67
2023/06/29 08:58:02;;;;;;;6.70;4.13;;;26.70;62.90;;;;;;6265116;22;20397;-67
2023/06/29 09:00:28;;;;;;;4.83;4.33;;;26.80;63.30;;;;;;6263749;22;20708;-68
2023/06/29 09:02:54;;;;;;;5.67;5.17;;;26.80;63.20;;;;;;6233087;22;20401;-68
2023/06/29 09:05:21;;;;;;;6.13;4.60;;;27.00;63.30;;;;;;6266480;22;20415;-68
2023/06/29 09:07:47;;;;;;;6.20;5.07;;;27.10;63.30;;;;;;6265510;22;20381;-68
2023/06/29 09:10:12;;;;;;;8.83;6.50;;;27.20;62.80;;;;;;6267063;22;20393;-68
2023/06/29 09:12:38;;;;;;;7.70;5.47;;;27.30;61.90;;;;;;6263963;22;20232;-68
2023/06/29 09:15:10;;;;;;;7.50;4.87;;;27.40;62.60;;;;;;6264716;22;20595;-68
2023/06/29 09:17:36;;;;;;;8.20;6.13;;;27.50;63.00;;;;;;6267594;22;20132;-68
2023/06/29 09:20:10;;;;;;;5.97;4.40;;;27.60;62.20;;;;;;6267045;22;20436;-67
2023/06/29 09:22:39;;;;;;;5.80;4.40;;;27.50;59.10;;;;;;6265094;22;20159;-68
2023/06/29 09:25:06;;;;;;;5.30;4.37;;;27.40;59.30;;;;;;6239534;22;20424;-68
2023/06/29 09:27:33;;;;;;;5.20;4.63;;;27.60;60.10;;;;;;6264576;22;20373;-68
2023/06/29 09:30:00;;;;;;;5.97;5.20;;;27.60;59.10;;;;;;6267011;22;20370;-68
2023/06/29 09:32:28;;;;;;;6.37;4.67;;;27.60;59.00;;;;;;6266761;22;20431;-68
2023/06/29 09:34:54;;;;;;;4.87;3.90;;;27.60;59.00;;;;;;6265563;22;20374;-68
2023/06/29 09:37:20;;;;;;;7.80;5.20;;;27.60;59.50;;;;;;6264754;22;20816;-68
2023/06/29 09:40:09;;;;;;;5.23;4.70;;;27.50;59.50;;;;;;6261864;22;20181;-68
2023/06/29 09:42:38;;;;;;;5.10;4.50;;;27.50;59.90;;;;;;6260358;22;20162;-69
2023/06/29 09:45:16;;;;;;;5.50;4.30;;;27.50;61.20;;;;;;6265929;22;20384;-66
2023/06/29 09:47:49;;;;;;;6.27;5.70;;;27.50;60.30;;;;;;6263938;22;20350;-66
2023/06/29 09:50:19;;;;;;;9.80;4.90;;;27.40;62.70;;;;;;6266658;22;20911;-66
2023/06/29 09:52:46;;;;;;;5.17;4.67;;;27.40;64.30;;;;;;6263849;22;20369;-66
2023/06/29 09:55:14;;;;;;;5.70;5.20;;;27.40;65.20;;;;;;6266412;22;20380;-67
2023/06/29 09:57:40;;;;;;;7.30;6.13;;;27.50;66.40;;;;;;6263766;22;20373;-66
2023/06/29 10:00:11;;;;;;;9.17;8.20;;;27.50;66.60;;;;;;6263757;22;20411;-66
2023/06/29 10:02:37;;;;;;;9.00;5.40;;;27.50;66.60;;;;;;6261695;22;20417;-69
2023/06/29 10:05:03;;;;;;;6.13;4.87;;;27.50;66.40;;;;;;6263070;22;20418;-67
2023/06/29 10:07:29;;;;;;;5.93;4.20;;;27.40;66.50;;;;;;6265742;22;20378;-67
2023/06/29 10:09:55;;;;;;;5.20;4.60;;;27.40;66.60;;;;;;6267043;22;20245;-67
2023/06/29 10:12:24;;;;;;;5.47;4.97;;;27.50;66.90;;;;;;6238985;22;20478;-67
2023/06/29 10:14:54;;;;;;;10.60;4.67;;;27.40;65.60;;;;;;6264308;22;20781;-67
2023/06/29 10:17:25;;;;;;;5.77;4.67;;;27.60;65.20;;;;;;6263792;22;20381;-68
2023/06/29 10:19:53;;;;;;;6.80;4.83;;;27.60;65.00;;;;;;6264882;22;20486;-67
2023/06/29 10:22:21;;;;;;;7.30;4.73;;;27.70;65.40;;;;;;6266465;22;20423;-67
2023/06/29 10:24:50;;;;;;;6.50;4.43;;;27.80;65.60;;;;;;6264808;22;20887;-67
2023/06/29 10:27:18;;;;;;;5.70;4.80;;;27.90;65.70;;;;;;6264976;22;20435;-66
2023/06/29 10:29:45;;;;;;;5.93;4.40;;;27.90;64.90;;;;;;6266102;22;20435;-66
2023/06/29 10:32:32;;;;;;;5.47;4.90;;;28.00;63.80;;;;;;6266582;22;20481;-67
2023/06/29 10:35:07;;;;;;;4.93;4.43;;;28.00;64.20;;;;;;6266396;22;20722;-66
2023/06/29 10:37:34;;;;;;;5.97;4.77;;;28.00;64.00;;;;;;6265915;22;20520;-67
2023/06/29 10:40:00;;;;;;;5.97;5.37;;;27.90;63.10;;;;;;6265769;22;20381;-67
2023/06/29 10:42:25;;;;;;;5.43;4.93;;;27.90;63.10;;;;;;6264571;22;20831;-67
2023/06/29 10:44:51;;;;;;;8.83;5.30;;;27.90;63.30;;;;;;6265363;22;20780;-68
2023/06/29 10:47:36;;;;;;;7.97;4.80;;;27.90;62.80;;;;;;6266088;22;20151;-66
2023/06/29 10:50:11;;;;;;;5.87;5.37;;;27.90;62.50;;;;;;6264386;22;20138;-67
2023/06/29 10:52:38;;;;;;;5.87;4.90;;;27.80;62.80;;;;;;6265952;22;20408;-68
2023/06/29 10:55:23;;;;;;;6.83;5.30;;;27.70;62.00;;;;;;6268797;22;20493;-68
2023/06/29 10:57:58;;;;;;;7.70;4.77;;;27.60;60.60;;;;;;6267609;22;20436;-67
2023/06/29 11:00:25;;;;;;;6.40;4.87;;;27.70;61.00;;;;;;6266067;22;20414;-67
2023/06/29 11:02:52;;;;;;;6.93;4.90;;;27.70;60.50;;;;;;6267115;22;20456;-67
2023/06/29 11:05:19;;;;;;;6.90;5.50;;;27.50;61.20;;;;;;6265008;22;20365;-67
2023/06/29 11:07:48;;;;;;;4.90;4.40;;;27.40;60.70;;;;;;6267906;22;20395;-68
2023/06/29 11:10:13;;;;;;;5.40;4.90;;;27.30;60.70;;;;;;6240107;22;20478;-67
2023/06/29 11:12:40;;;;;;;7.93;4.50;;;27.40;60.40;;;;;;6267434;22;20822;-67
2023/06/29 11:15:16;;;;;;;6.53;4.77;;;27.40;60.60;;;;;;6267113;22;20155;-67
2023/06/29 11:17:42;;;;;;;7.43;4.53;;;27.40;60.50;;;;;;6267570;22;20361;-67
2023/06/29 11:20:16;;;;;;;7.20;4.83;;;27.30;59.80;;;;;;6268192;22;20448;-67
2023/06/29 11:22:42;;;;;;;5.80;4.37;;;27.40;60.20;;;;;;6267661;22;20567;-68
2023/06/29 11:25:12;;;;;;;4.67;4.17;;;27.60;60.50;;;;;;6266471;22;20426;-69
2023/06/29 11:27:38;;;;;;;9.50;4.53;;;27.70;60.90;;;;;;6267395;22;20431;-68
2023/06/29 11:30:06;;;;;;;6.53;4.50;;;27.90;60.30;;;;;;6267782;22;20369;-68
2023/06/29 11:32:33;;;;;;;6.47;4.63;;;28.10;59.20;;;;;;6267600;22;20438;-67
2023/06/29 11:35:02;;;;;;;6.63;4.50;;;28.10;58.60;;;;;;6238547;22;20432;-67
2023/06/29 11:37:28;;;;;;;5.47;4.70;;;28.20;58.90;;;;;;6266032;22;20381;-68
2023/06/29 11:39:54;;;;;;;4.53;4.00;;;28.30;58.20;;;;;;6267353;22;20397;-68
2023/06/29 11:42:21;;;;;;;7.70;5.60;;;28.20;58.40;;;;;;6268879;22;20416;-67
2023/06/29 11:44:59;;;;;;;6.77;4.50;;;28.10;58.90;;;;;;6266744;22;20146;-67
2023/06/29 11:47:24;;;;;;;7.03;4.47;;;28.10;58.90;;;;;;6266986;22;20952;-67
2023/06/29 11:49:50;;;;;;;5.30;4.20;;;28.10;59.00;;;;;;6265677;22;20413;-68
2023/06/29 11:52:16;;;;;;;6.83;4.20;;;27.90;58.50;;;;;;6268415;22;20446;-67
2023/06/29 11:54:42;;;;;;;5.80;4.30;;;28.00;58.90;;;;;;6266419;22;20775;-68
2023/06/29 11:57:08;;;;;;;5.40;3.90;;;28.10;59.10;;;;;;6267126;22;20154;-67
2023/06/29 11:59:38;;;;;;;6.30;4.13;;;28.10;58.10;;;;;;6267318;22;20873;-67
2023/06/29 12:02:03;;;;;;;4.93;4.30;;;28.20;57.50;;;;;;6237340;22;20590;-68
2023/06/29 12:04:29;;;;;;;5.40;4.10;;;28.20;57.60;;;;;;6265974;22;20409;-68
2023/06/29 12:06:56;;;;;;;5.20;4.43;;;28.30;56.60;;;;;;6266622;22;20147;-68
2023/06/29 12:09:37;;;;;;;5.73;4.40;;;28.30;56.90;;;;;;6267655;22;20255;-68
2023/06/29 12:12:03;;;;;;;5.00;4.53;;;28.30;56.40;;;;;;6264635;22;20369;-68
2023/06/29 12:14:32;;;;;;;5.93;4.20;;;28.40;56.60;;;;;;6267376;22;20378;-68
2023/06/29 12:17:00;;;;;;;4.77;4.37;;;28.50;56.10;;;;;;6264615;22;20713;-67
2023/06/29 12:19:36;;;;;;;5.23;4.50;;;28.60;56.40;;;;;;6266815;22;20397;-68
2023/06/29 12:22:11;;;;;;;5.70;4.10;;;28.90;56.10;;;;;;6267490;22;20401;-68
2023/06/29 12:24:36;;;;;;;6.60;4.33;;;29.50;55.60;;;;;;6262958;22;20387;-68
2023/06/29 12:27:02;;;;;;;5.97;4.80;;;29.70;53.50;;;;;;6266241;22;20377;-68
2023/06/29 12:29:28;;;;;;;4.47;4.03;;;29.50;53.30;;;;;;6264543;22;20170;-68
2023/06/29 12:32:00;;;;;;;4.73;3.70;;;29.60;53.50;;;;;;6266336;22;20150;-67
2023/06/29 12:34:28;;;;;;;5.23;4.23;;;29.70;52.90;;;;;;6239349;22;20213;-68
2023/06/29 12:36:54;;;;;;;5.63;3.70;;;30.00;53.00;;;;;;6266878;22;20861;-68
2023/06/29 12:39:19;;;;;;;4.20;3.87;;;30.00;52.00;;;;;;6264670;22;20400;-68
2023/06/29 12:41:45;;;;;;;4.20;3.70;;;30.10;52.30;;;;;;6266450;22;20181;-68
2023/06/29 12:44:10;;;;;;;6.27;3.80;;;30.20;51.80;;;;;;6266005;22;20151;-67